sensor_id;sensor_type;location;lat;lon;timestamp;temperature;humidity
8402;DHT22;4238;48.404;9.498;2024-03-29T05:00:34;6.70;1.00
8402;DHT22;4238;48.404;9.498;2024-03-29T05:03:01;6.70;99.90
8402;DHT22;4238;48.404;9.498;2024-03-29T05:05:28;6.90;99.90
8402;DHT22;4238;48.404;9.498;2024-03-29T05:07:55;7.00;99.90
8402;DHT22;4238;48.404;9.498;2024-03-29T05:10:22;7.10;99.90
8402;DHT22;4238;48.404;9.498;2024-03-29T05:12:49;7.20;99.90
8402;DHT22;4238;48.404;9.498;2024-03-29T05:15:16;7.20;99.90
8402;DHT22;4238;48.404;9.498;2024-03-29T05:17:44;7.30;99.90
8402;DHT22;4238;48.404;9.498;2024-03-29T05:20:11;7.40;99.90
8402;DHT22;4238;48.404;9.498;2024-03-29T05:22:38;7.50;92.90
8402;DHT22;4238;48.404;9.498;2024-03-29T05:25:05;7.50;94.90
8402;DHT22;4238;48.404;9.498;2024-03-29T05:27:33;7.60;61.40
8402;DHT22;4238;48.404;9.498;2024-03-29T05:30:00;7.60;39.00
8402;DHT22;4238;48.404;9.498;2024-03-29T05:32:26;7.60;16.60
8402;DHT22;4238;48.404;9.498;2024-03-29T05:34:55;7.60;35.10
8402;DHT22;4238;48.404;9.498;2024-03-29T05:37:22;7.60;63.80
8402;DHT22;4238;48.404;9.498;2024-03-29T05:39:51;7.60;47.20
8402;DHT22;4238;48.404;9.498;2024-03-29T05:42:24;7.60;21.10
8402;DHT22;4238;48.404;9.498;2024-03-29T05:44:51;7.60;41.60
8402;DHT22;4238;48.404;9.498;2024-03-29T05:47:18;7.60;96.40
8402;DHT22;4238;48.404;9.498;2024-03-29T05:49:45;7.60;99.90
8402;DHT22;4238;48.404;9.498;2024-03-29T05:52:14;7.30;99.90
8402;DHT22;4238;48.404;9.498;2024-03-29T05:54:41;7.10;99.90
8402;DHT22;4238;48.404;9.498;2024-03-29T05:57:08;7.10;99.90
8402;DHT22;4238;48.404;9.498;2024-03-29T05:59:35;7.20;99.90
8402;DHT22;4238;48.404;9.498;2024-03-29T06:02:02;7.30;99.90
8402;DHT22;4238;48.404;9.498;2024-03-29T06:04:29;7.20;99.90
8402;DHT22;4238;48.404;9.498;2024-03-29T06:06:58;7.30;99.90
8402;DHT22;4238;48.404;9.498;2024-03-29T06:09:26;7.40;99.90
8402;DHT22;4238;48.404;9.498;2024-03-29T06:11:53;7.50;99.90
8402;DHT22;4238;48.404;9.498;2024-03-29T06:14:20;7.40;99.90
8402;DHT22;4238;48.404;9.498;2024-03-29T06:17:05;7.40;99.90
8402;DHT22;4238;48.404;9.498;2024-03-29T06:19:50;7.50;99.90
8402;DHT22;4238;48.404;9.498;2024-03-29T06:22:17;7.50;99.90
8402;DHT22;4238;48.404;9.498;2024-03-29T06:24:45;7.60;99.90
8402;DHT22;4238;48.404;9.498;2024-03-29T06:27:14;7.70;99.90
8402;DHT22;4238;48.404;9.498;2024-03-29T06:29:43;7.80;99.90
8402;DHT22;4238;48.404;9.498;2024-03-29T06:32:10;7.90;99.90
8402;DHT22;4238;48.404;9.498;2024-03-29T06:34:37;7.90;99.90
8402;DHT22;4238;48.404;9.498;2024-03-29T06:37:04;8.00;99.90
8402;DHT22;4238;48.404;9.498;2024-03-29T06:39:31;8.10;99.90
8402;DHT22;4238;48.404;9.498;2024-03-29T06:41:59;8.00;99.90
8402;DHT22;4238;48.404;9.498;2024-03-29T06:44:26;7.90;99.90
8402;DHT22;4238;48.404;9.498;2024-03-29T06:46:53;8.00;99.90
8402;DHT22;4238;48.404;9.498;2024-03-29T06:49:19;7.90;99.90
8402;DHT22;4238;48.404;9.498;2024-03-29T06:51:46;8.00;99.90
8402;DHT22;4238;48.404;9.498;2024-03-29T06:54:13;8.00;99.90
8402;DHT22;4238;48.404;9.498;2024-03-29T06:56:40;8.10;99.90
8402;DHT22;4238;48.404;9.498;2024-03-29T06:59:08;8.20;99.90
8402;DHT22;4238;48.404;9.498;2024-03-29T07:01:35;8.30;99.90
8402;DHT22;4238;48.404;9.498;2024-03-29T07:04:02;8.40;99.90
8402;DHT22;4238;48.404;9.498;2024-03-29T07:06:29;8.50;99.90
8402;DHT22;4238;48.404;9.498;2024-03-29T07:08:56;8.60;99.90
8402;DHT22;4238;48.404;9.498;2024-03-29T07:11:23;8.60;99.90
8402;DHT22;4238;48.404;9.498;2024-03-29T07:13:50;8.70;99.90
8402;DHT22;4238;48.404;9.498;2024-03-29T07:16:18;8.70;99.90
8402;DHT22;4238;48.404;9.498;2024-03-29T07:18:45;8.60;1.00
8402;DHT22;4238;48.404;9.498;2024-03-29T07:21:12;8.60;1.00
8402;DHT22;4238;48.404;9.498;2024-03-29T07:23:39;8.40;1.00
8402;DHT22;4238;48.404;9.498;2024-03-29T07:26:06;8.40;1.00
8402;DHT22;4238;48.404;9.498;2024-03-29T07:28:33;8.50;1.00
8402;DHT22;4238;48.404;9.498;2024-03-29T07:31:05;8.60;1.00
8402;DHT22;4238;48.404;9.498;2024-03-29T07:33:34;8.70;1.00
8402;DHT22;4238;48.404;9.498;2024-03-29T07:36:01;8.70;1.00
8402;DHT22;4238;48.404;9.498;2024-03-29T07:38:29;8.80;1.00
8402;DHT22;4238;48.404;9.498;2024-03-29T07:40:56;8.90;99.90
8402;DHT22;4238;48.404;9.498;2024-03-29T07:43:23;9.30;99.90
8402;DHT22;4238;48.404;9.498;2024-03-29T07:45:50;9.50;99.90
8402;DHT22;4238;48.404;9.498;2024-03-29T07:48:18;10.10;1.00
8402;DHT22;4238;48.404;9.498;2024-03-29T07:50:46;10.40;99.90
8402;DHT22;4238;48.404;9.498;2024-03-29T07:53:13;10.50;99.90
8402;DHT22;4238;48.404;9.498;2024-03-29T07:55:41;10.40;99.90
8402;DHT22;4238;48.404;9.498;2024-03-29T07:58:08;10.30;99.90
8402;DHT22;4238;48.404;9.498;2024-03-29T08:00:38;10.40;99.90
8402;DHT22;4238;48.404;9.498;2024-03-29T08:03:05;10.50;99.90
8402;DHT22;4238;48.404;9.498;2024-03-29T08:05:33;10.60;99.90
8402;DHT22;4238;48.404;9.498;2024-03-29T08:08:02;10.70;99.90
8402;DHT22;4238;48.404;9.498;2024-03-29T08:10:29;11.10;99.90
8402;DHT22;4238;48.404;9.498;2024-03-29T08:12:56;11.70;99.90
8402;DHT22;4238;48.404;9.498;2024-03-29T08:15:23;12.10;92.10
8402;DHT22;4238;48.404;9.498;2024-03-29T08:17:51;12.30;30.10
8402;DHT22;4238;48.404;9.498;2024-03-29T08:20:17;12.40;18.90
8402;DHT22;4238;48.404;9.498;2024-03-29T08:22:44;12.20;6.90
8402;DHT22;4238;48.404;9.498;2024-03-29T08:25:13;12.20;1.00
8402;DHT22;4238;48.404;9.498;2024-03-29T08:27:40;12.20;1.00
8402;DHT22;4238;48.404;9.498;2024-03-29T08:30:08;12.20;1.00
8402;DHT22;4238;48.404;9.498;2024-03-29T08:32:35;12.60;17.10
8402;DHT22;4238;48.404;9.498;2024-03-29T08:35:02;12.80;1.00
8402;DHT22;4238;48.404;9.498;2024-03-29T08:37:28;12.90;1.00
8402;DHT22;4238;48.404;9.498;2024-03-29T08:39:56;13.00;1.00
8402;DHT22;4238;48.404;9.498;2024-03-29T08:42:24;13.10;1.00
8402;DHT22;4238;48.404;9.498;2024-03-29T08:44:51;13.50;1.00
8402;DHT22;4238;48.404;9.498;2024-03-29T08:47:18;14.00;1.00
8402;DHT22;4238;48.404;9.498;2024-03-29T08:49:45;14.10;1.00
8402;DHT22;4238;48.404;9.498;2024-03-29T08:52:12;14.20;1.00
8402;DHT22;4238;48.404;9.498;2024-03-29T08:54:40;14.20;1.00
8402;DHT22;4238;48.404;9.498;2024-03-29T08:57:07;14.30;1.00
8402;DHT22;4238;48.404;9.498;2024-03-29T08:59:35;14.50;1.00
8402;DHT22;4238;48.404;9.498;2024-03-29T09:02:06;14.40;1.00
8402;DHT22;4238;48.404;9.498;2024-03-29T09:04:33;14.20;1.00
8402;DHT22;4238;48.404;9.498;2024-03-29T09:07:00;14.00;1.00
8402;DHT22;4238;48.404;9.498;2024-03-29T09:09:29;14.10;1.00
8402;DHT22;4238;48.404;9.498;2024-03-29T09:11:56;14.20;1.00
8402;DHT22;4238;48.404;9.498;2024-03-29T09:14:22;14.30;1.00
8402;DHT22;4238;48.404;9.498;2024-03-29T09:16:51;14.10;1.00
8402;DHT22;4238;48.404;9.498;2024-03-29T09:19:18;13.90;1.00
8402;DHT22;4238;48.404;9.498;2024-03-29T09:21:45;13.80;1.00
8402;DHT22;4238;48.404;9.498;2024-03-29T09:24:12;13.70;1.00
8402;DHT22;4238;48.404;9.498;2024-03-29T09:26:39;13.60;1.00
8402;DHT22;4238;48.404;9.498;2024-03-29T09:29:06;13.40;1.00
8402;DHT22;4238;48.404;9.498;2024-03-29T09:31:33;13.30;1.00
8402;DHT22;4238;48.404;9.498;2024-03-29T09:34:01;13.20;1.00
8402;DHT22;4238;48.404;9.498;2024-03-29T09:36:29;13.20;1.00
8402;DHT22;4238;48.404;9.498;2024-03-29T09:38:55;13.20;1.00
8402;DHT22;4238;48.404;9.498;2024-03-29T09:41:25;13.10;1.00
8402;DHT22;4238;48.404;9.498;2024-03-29T09:43:54;13.10;1.00
8402;DHT22;4238;48.404;9.498;2024-03-29T09:46:25;13.10;1.00
8402;DHT22;4238;48.404;9.498;2024-03-29T09:48:55;13.10;1.00
8402;DHT22;4238;48.404;9.498;2024-03-29T09:51:24;13.10;1.00
8402;DHT22;4238;48.404;9.498;2024-03-29T09:53:52;13.00;1.00
8402;DHT22;4238;48.404;9.498;2024-03-29T09:56:19;13.10;1.00
8402;DHT22;4238;48.404;9.498;2024-03-29T09:58:47;13.30;1.00
8402;DHT22;4238;48.404;9.498;2024-03-29T10:01:13;13.40;1.00
8402;DHT22;4238;48.404;9.498;2024-03-29T10:03:42;13.50;1.00
8402;DHT22;4238;48.404;9.498;2024-03-29T10:06:11;13.40;1.00
8402;DHT22;4238;48.404;9.498;2024-03-29T10:08:41;13.50;1.00
8402;DHT22;4238;48.404;9.498;2024-03-29T10:11:08;13.60;1.00
8402;DHT22;4238;48.404;9.498;2024-03-29T10:13:35;13.70;1.00
8402;DHT22;4238;48.404;9.498;2024-03-29T10:16:03;13.90;1.00
8402;DHT22;4238;48.404;9.498;2024-03-29T10:18:36;14.00;1.00
8402;DHT22;4238;48.404;9.498;2024-03-29T10:21:04;14.20;1.00
8402;DHT22;4238;48.404;9.498;2024-03-29T10:23:32;14.20;1.00
8402;DHT22;4238;48.404;9.498;2024-03-29T10:26:02;14.10;1.00
8402;DHT22;4238;48.404;9.498;2024-03-29T10:28:31;14.20;1.00
8402;DHT22;4238;48.404;9.498;2024-03-29T10:31:00;14.20;1.00
8402;DHT22;4238;48.404;9.498;2024-03-29T10:33:29;14.20;1.00
8402;DHT22;4238;48.404;9.498;2024-03-29T10:35:56;14.20;1.00
8402;DHT22;4238;48.404;9.498;2024-03-29T10:38:24;14.20;1.00
8402;DHT22;4238;48.404;9.498;2024-03-29T10:40:52;14.40;1.00
8402;DHT22;4238;48.404;9.498;2024-03-29T10:43:20;14.40;1.00
8402;DHT22;4238;48.404;9.498;2024-03-29T10:45:48;14.40;1.00
8402;DHT22;4238;48.404;9.498;2024-03-29T10:48:16;14.40;1.00
8402;DHT22;4238;48.404;9.498;2024-03-29T10:50:44;14.40;1.00
8402;DHT22;4238;48.404;9.498;2024-03-29T10:53:12;14.40;1.00
8402;DHT22;4238;48.404;9.498;2024-03-29T10:55:42;14.50;1.00
8402;DHT22;4238;48.404;9.498;2024-03-29T10:58:11;14.80;1.00
8402;DHT22;4238;48.404;9.498;2024-03-29T11:00:45;14.90;1.00
8402;DHT22;4238;48.404;9.498;2024-03-29T11:03:16;15.10;1.00
8402;DHT22;4238;48.404;9.498;2024-03-29T11:05:47;15.20;1.00
8402;DHT22;4238;48.404;9.498;2024-03-29T11:08:19;15.20;1.00
8402;DHT22;4238;48.404;9.498;2024-03-29T11:10:49;15.50;1.00
8402;DHT22;4238;48.404;9.498;2024-03-29T11:13:25;15.50;1.00
8402;DHT22;4238;48.404;9.498;2024-03-29T11:15:55;15.50;1.00
8402;DHT22;4238;48.404;9.498;2024-03-29T11:18:23;15.50;1.00
8402;DHT22;4238;48.404;9.498;2024-03-29T11:20:51;15.40;1.00
8402;DHT22;4238;48.404;9.498;2024-03-29T11:23:20;15.50;1.00
8402;DHT22;4238;48.404;9.498;2024-03-29T11:25:49;15.60;1.00
8402;DHT22;4238;48.404;9.498;2024-03-29T11:28:24;15.50;1.00
8402;DHT22;4238;48.404;9.498;2024-03-29T11:30:52;15.80;1.00
8402;DHT22;4238;48.404;9.498;2024-03-29T11:33:31;15.80;1.00
8402;DHT22;4238;48.404;9.498;2024-03-29T11:35:59;15.60;1.00
8402;DHT22;4238;48.404;9.498;2024-03-29T11:38:31;15.80;1.00
8402;DHT22;4238;48.404;9.498;2024-03-29T11:41:05;15.70;1.00
8402;DHT22;4238;48.404;9.498;2024-03-29T11:43:33;15.70;1.00
8402;DHT22;4238;48.404;9.498;2024-03-29T11:46:00;16.10;1.00
8402;DHT22;4238;48.404;9.498;2024-03-29T11:48:30;16.40;1.00
8402;DHT22;4238;48.404;9.498;2024-03-29T11:50:58;16.10;1.00
8402;DHT22;4238;48.404;9.498;2024-03-29T11:53:25;15.90;1.00
8402;DHT22;4238;48.404;9.498;2024-03-29T11:55:53;15.80;1.00
8402;DHT22;4238;48.404;9.498;2024-03-29T11:58:21;15.60;1.00
8402;DHT22;4238;48.404;9.498;2024-03-29T12:00:49;15.40;1.00
8402;DHT22;4238;48.404;9.498;2024-03-29T12:03:16;15.30;1.00
8402;DHT22;4238;48.404;9.498;2024-03-29T12:05:47;15.20;1.00
8402;DHT22;4238;48.404;9.498;2024-03-29T12:08:14;15.30;1.00
8402;DHT22;4238;48.404;9.498;2024-03-29T12:10:41;15.70;1.00
8402;DHT22;4238;48.404;9.498;2024-03-29T12:13:09;15.60;1.00
8402;DHT22;4238;48.404;9.498;2024-03-29T12:15:36;16.00;1.00
8402;DHT22;4238;48.404;9.498;2024-03-29T12:18:04;16.50;1.00
8402;DHT22;4238;48.404;9.498;2024-03-29T12:20:31;17.00;1.00
8402;DHT22;4238;48.404;9.498;2024-03-29T12:23:01;17.30;1.00
8402;DHT22;4238;48.404;9.498;2024-03-29T12:25:28;17.50;1.00
8402;DHT22;4238;48.404;9.498;2024-03-29T12:27:55;17.90;1.00
8402;DHT22;4238;48.404;9.498;2024-03-29T12:30:22;17.90;1.00
8402;DHT22;4238;48.404;9.498;2024-03-29T12:33:00;17.90;1.00
8402;DHT22;4238;48.404;9.498;2024-03-29T12:35:28;18.00;1.00
8402;DHT22;4238;48.404;9.498;2024-03-29T12:37:57;18.40;1.00
8402;DHT22;4238;48.404;9.498;2024-03-29T12:40:26;18.30;1.00
8402;DHT22;4238;48.404;9.498;2024-03-29T12:42:56;18.20;1.00
8402;DHT22;4238;48.404;9.498;2024-03-29T12:45:23;18.30;1.00
8402;DHT22;4238;48.404;9.498;2024-03-29T12:47:50;17.90;1.00
8402;DHT22;4238;48.404;9.498;2024-03-29T12:50:24;17.70;1.00
8402;DHT22;4238;48.404;9.498;2024-03-29T12:52:53;17.80;1.00
8402;DHT22;4238;48.404;9.498;2024-03-29T12:55:20;18.40;1.00
8402;DHT22;4238;48.404;9.498;2024-03-29T12:57:50;18.90;1.00
8402;DHT22;4238;48.404;9.498;2024-03-29T13:00:21;18.80;1.00
8402;DHT22;4238;48.404;9.498;2024-03-29T13:02:48;18.90;1.00
8402;DHT22;4238;48.404;9.498;2024-03-29T13:05:16;18.90;1.00
8402;DHT22;4238;48.404;9.498;2024-03-29T13:07:42;18.90;1.00
8402;DHT22;4238;48.404;9.498;2024-03-29T13:10:10;18.70;1.00
8402;DHT22;4238;48.404;9.498;2024-03-29T13:12:40;18.90;1.00
8402;DHT22;4238;48.404;9.498;2024-03-29T13:15:18;18.90;1.00
8402;DHT22;4238;48.404;9.498;2024-03-29T13:17:46;18.60;1.00
8402;DHT22;4238;48.404;9.498;2024-03-29T13:20:14;18.70;1.00
8402;DHT22;4238;48.404;9.498;2024-03-29T13:22:42;18.90;1.00
8402;DHT22;4238;48.404;9.498;2024-03-29T13:25:11;19.60;1.00
8402;DHT22;4238;48.404;9.498;2024-03-29T13:27:39;20.30;1.00
8402;DHT22;4238;48.404;9.498;2024-03-29T13:30:07;20.60;1.00
8402;DHT22;4238;48.404;9.498;2024-03-29T13:32:36;20.90;1.00
8402;DHT22;4238;48.404;9.498;2024-03-29T13:35:05;21.20;1.00
8402;DHT22;4238;48.404;9.498;2024-03-29T13:37:34;20.30;1.00
8402;DHT22;4238;48.404;9.498;2024-03-29T13:40:01;20.00;1.00
8402;DHT22;4238;48.404;9.498;2024-03-29T13:42:30;20.50;1.00
8402;DHT22;4238;48.404;9.498;2024-03-29T13:44:57;20.60;1.00
8402;DHT22;4238;48.404;9.498;2024-03-29T13:47:24;20.30;1.00
8402;DHT22;4238;48.404;9.498;2024-03-29T13:49:52;20.20;1.00
8402;DHT22;4238;48.404;9.498;2024-03-29T13:52:21;20.20;1.00
8402;DHT22;4238;48.404;9.498;2024-03-29T13:54:48;20.50;1.00
8402;DHT22;4238;48.404;9.498;2024-03-29T13:57:16;20.40;1.00
8402;DHT22;4238;48.404;9.498;2024-03-29T13:59:44;20.70;1.00
8402;DHT22;4238;48.404;9.498;2024-03-29T14:02:12;20.60;1.00
8402;DHT22;4238;48.404;9.498;2024-03-29T14:04:39;20.70;1.00
8402;DHT22;4238;48.404;9.498;2024-03-29T14:07:08;20.80;1.00
8402;DHT22;4238;48.404;9.498;2024-03-29T14:09:37;20.50;1.00
8402;DHT22;4238;48.404;9.498;2024-03-29T14:12:04;20.50;1.00
8402;DHT22;4238;48.404;9.498;2024-03-29T14:14:31;20.10;1.00
8402;DHT22;4238;48.404;9.498;2024-03-29T14:16:59;20.20;1.00
8402;DHT22;4238;48.404;9.498;2024-03-29T14:19:29;20.30;1.00
8402;DHT22;4238;48.404;9.498;2024-03-29T14:21:56;20.40;1.00
8402;DHT22;4238;48.404;9.498;2024-03-29T14:24:25;20.00;1.00
8402;DHT22;4238;48.404;9.498;2024-03-29T14:26:52;20.00;1.00
8402;DHT22;4238;48.404;9.498;2024-03-29T14:29:19;20.20;1.00
8402;DHT22;4238;48.404;9.498;2024-03-29T14:31:47;20.00;1.00
8402;DHT22;4238;48.404;9.498;2024-03-29T14:34:14;19.80;1.00
8402;DHT22;4238;48.404;9.498;2024-03-29T14:36:41;19.30;1.00
8402;DHT22;4238;48.404;9.498;2024-03-29T14:39:07;19.30;1.00
8402;DHT22;4238;48.404;9.498;2024-03-29T14:41:36;19.20;1.00
8402;DHT22;4238;48.404;9.498;2024-03-29T14:44:05;19.30;1.00
8402;DHT22;4238;48.404;9.498;2024-03-29T14:46:32;19.20;1.00
8402;DHT22;4238;48.404;9.498;2024-03-29T14:48:59;19.00;1.00
8402;DHT22;4238;48.404;9.498;2024-03-29T14:51:26;18.90;1.00
8402;DHT22;4238;48.404;9.498;2024-03-29T14:53:53;19.00;1.00
8402;DHT22;4238;48.404;9.498;2024-03-29T14:56:20;18.90;1.00
8402;DHT22;4238;48.404;9.498;2024-03-29T14:58:48;18.90;1.00
8402;DHT22;4238;48.404;9.498;2024-03-29T15:01:16;18.90;1.00
8402;DHT22;4238;48.404;9.498;2024-03-29T15:03:43;18.90;1.00
8402;DHT22;4238;48.404;9.498;2024-03-29T15:06:10;18.80;1.00
8402;DHT22;4238;48.404;9.498;2024-03-29T15:08:36;18.90;1.00
8402;DHT22;4238;48.404;9.498;2024-03-29T15:11:03;18.80;1.00
8402;DHT22;4238;48.404;9.498;2024-03-29T15:13:32;18.70;1.00
8402;DHT22;4238;48.404;9.498;2024-03-29T15:16:01;18.60;1.00
8402;DHT22;4238;48.404;9.498;2024-03-29T15:18:28;18.50;1.00
8402;DHT22;4238;48.404;9.498;2024-03-29T15:20:56;18.30;1.00
8402;DHT22;4238;48.404;9.498;2024-03-29T15:23:23;18.30;1.00
8402;DHT22;4238;48.404;9.498;2024-03-29T15:25:52;18.20;1.00
8402;DHT22;4238;48.404;9.498;2024-03-29T15:28:19;18.20;1.00
8402;DHT22;4238;48.404;9.498;2024-03-29T15:31:20;18.10;1.00
8402;DHT22;4238;48.404;9.498;2024-03-29T15:33:48;18.00;1.00
8402;DHT22;4238;48.404;9.498;2024-03-29T15:36:15;17.80;1.00
8402;DHT22;4238;48.404;9.498;2024-03-29T15:38:42;17.70;1.00
8402;DHT22;4238;48.404;9.498;2024-03-29T15:41:10;17.50;1.00
8402;DHT22;4238;48.404;9.498;2024-03-29T15:43:37;17.50;1.00
8402;DHT22;4238;48.404;9.498;2024-03-29T15:46:04;17.40;1.00
8402;DHT22;4238;48.404;9.498;2024-03-29T15:48:33;17.30;1.00
8402;DHT22;4238;48.404;9.498;2024-03-29T15:51:00;17.20;1.00
8402;DHT22;4238;48.404;9.498;2024-03-29T15:53:26;17.10;1.00
8402;DHT22;4238;48.404;9.498;2024-03-29T15:55:53;17.10;1.00
8402;DHT22;4238;48.404;9.498;2024-03-29T15:58:20;16.90;1.00
8402;DHT22;4238;48.404;9.498;2024-03-29T16:00:47;16.80;1.00
8402;DHT22;4238;48.404;9.498;2024-03-29T16:03:14;16.70;1.00
8402;DHT22;4238;48.404;9.498;2024-03-29T16:05:44;16.60;13.90
8402;DHT22;4238;48.404;9.498;2024-03-29T16:08:11;16.50;99.90
8402;DHT22;4238;48.404;9.498;2024-03-29T16:10:51;16.40;99.90
8402;DHT22;4238;48.404;9.498;2024-03-29T16:13:20;16.30;99.90
8402;DHT22;4238;48.404;9.498;2024-03-29T16:15:47;16.10;99.90
8402;DHT22;4238;48.404;9.498;2024-03-29T16:18:15;16.20;99.90
8402;DHT22;4238;48.404;9.498;2024-03-29T16:20:43;16.00;99.90
8402;DHT22;4238;48.404;9.498;2024-03-29T16:23:11;15.80;1.00
8402;DHT22;4238;48.404;9.498;2024-03-29T16:25:38;15.80;1.00
8402;DHT22;4238;48.404;9.498;2024-03-29T16:28:06;15.70;1.00
8402;DHT22;4238;48.404;9.498;2024-03-29T16:30:36;15.60;1.00
8402;DHT22;4238;48.404;9.498;2024-03-29T16:33:02;15.60;1.00
8402;DHT22;4238;48.404;9.498;2024-03-29T16:35:29;15.50;1.00
8402;DHT22;4238;48.404;9.498;2024-03-29T16:37:56;15.50;1.00
8402;DHT22;4238;48.404;9.498;2024-03-29T16:40:23;15.40;1.00
8402;DHT22;4238;48.404;9.498;2024-03-29T16:42:49;15.40;29.00
8402;DHT22;4238;48.404;9.498;2024-03-29T16:45:16;15.40;53.30
8402;DHT22;4238;48.404;9.498;2024-03-29T16:47:41;15.30;99.90
8402;DHT22;4238;48.404;9.498;2024-03-29T16:50:09;15.20;99.90
8402;DHT22;4238;48.404;9.498;2024-03-29T16:52:35;15.20;99.90
8402;DHT22;4238;48.404;9.498;2024-03-29T16:55:04;15.20;99.90
8402;DHT22;4238;48.404;9.498;2024-03-29T16:57:31;15.10;99.90
8402;DHT22;4238;48.404;9.498;2024-03-29T16:59:58;15.00;1.00
8402;DHT22;4238;48.404;9.498;2024-03-29T17:02:24;15.00;1.00
8402;DHT22;4238;48.404;9.498;2024-03-29T17:04:51;15.00;1.00
8402;DHT22;4238;48.404;9.498;2024-03-29T17:07:18;14.90;1.00
8402;DHT22;4238;48.404;9.498;2024-03-29T17:09:45;14.90;1.00
8402;DHT22;4238;48.404;9.498;2024-03-29T17:12:12;14.80;44.20
8402;DHT22;4238;48.404;9.498;2024-03-29T17:14:40;14.70;99.90
8402;DHT22;4238;48.404;9.498;2024-03-29T17:17:06;14.60;99.90
8402;DHT22;4238;48.404;9.498;2024-03-29T17:19:34;14.40;1.00
8402;DHT22;4238;48.404;9.498;2024-03-29T17:22:00;14.30;1.00
8402;DHT22;4238;48.404;9.498;2024-03-29T17:24:27;14.30;99.90
8402;DHT22;4238;48.404;9.498;2024-03-29T17:26:54;14.20;1.00
8402;DHT22;4238;48.404;9.498;2024-03-29T17:29:23;14.10;1.00
8402;DHT22;4238;48.404;9.498;2024-03-29T17:31:49;14.10;1.00
8402;DHT22;4238;48.404;9.498;2024-03-29T17:34:17;14.10;99.90
8402;DHT22;4238;48.404;9.498;2024-03-29T17:36:45;13.90;1.00
8402;DHT22;4238;48.404;9.498;2024-03-29T17:39:12;13.90;1.00
8402;DHT22;4238;48.404;9.498;2024-03-29T17:41:38;13.90;1.00
8402;DHT22;4238;48.404;9.498;2024-03-29T17:44:06;13.80;99.90
8402;DHT22;4238;48.404;9.498;2024-03-29T17:46:33;13.70;1.00
8402;DHT22;4238;48.404;9.498;2024-03-29T17:49:00;13.70;1.00
8402;DHT22;4238;48.404;9.498;2024-03-29T17:51:26;13.60;1.00
8402;DHT22;4238;48.404;9.498;2024-03-29T17:53:53;13.60;1.00
8402;DHT22;4238;48.404;9.498;2024-03-29T17:56:19;13.50;99.90
8402;DHT22;4238;48.404;9.498;2024-03-29T17:58:46;13.50;1.00
8402;DHT22;4238;48.404;9.498;2024-03-29T18:01:13;13.50;45.80
8402;DHT22;4238;48.404;9.498;2024-03-29T18:03:41;13.40;99.90
8402;DHT22;4238;48.404;9.498;2024-03-29T18:06:07;13.30;1.00
8402;DHT22;4238;48.404;9.498;2024-03-29T18:08:34;13.30;99.90
8402;DHT22;4238;48.404;9.498;2024-03-29T18:11:00;13.30;1.00
8402;DHT22;4238;48.404;9.498;2024-03-29T18:13:27;13.30;1.00
8402;DHT22;4238;48.404;9.498;2024-03-29T18:15:54;13.30;42.10
8402;DHT22;4238;48.404;9.498;2024-03-29T18:18:21;13.20;1.00
8402;DHT22;4238;48.404;9.498;2024-03-29T18:20:49;13.10;1.00
8402;DHT22;4238;48.404;9.498;2024-03-29T18:23:16;13.00;99.90
8402;DHT22;4238;48.404;9.498;2024-03-29T18:25:41;13.00;99.90
8402;DHT22;4238;48.404;9.498;2024-03-29T18:28:08;13.00;99.90
8402;DHT22;4238;48.404;9.498;2024-03-29T18:30:34;12.90;1.00
8402;DHT22;4238;48.404;9.498;2024-03-29T18:33:01;12.90;99.90
8402;DHT22;4238;48.404;9.498;2024-03-29T18:35:28;12.80;1.00
8402;DHT22;4238;48.404;9.498;2024-03-29T18:37:56;12.70;1.00
8402;DHT22;4238;48.404;9.498;2024-03-29T18:40:23;12.60;99.90
8402;DHT22;4238;48.404;9.498;2024-03-29T18:42:49;12.50;1.00
8402;DHT22;4238;48.404;9.498;2024-03-29T18:45:17;12.40;1.00
8402;DHT22;4238;48.404;9.498;2024-03-29T18:47:46;12.40;1.00
8402;DHT22;4238;48.404;9.498;2024-03-29T18:50:13;12.40;99.90
8402;DHT22;4238;48.404;9.498;2024-03-29T18:52:39;12.40;1.00
8402;DHT22;4238;48.404;9.498;2024-03-29T18:55:08;12.40;1.00
8402;DHT22;4238;48.404;9.498;2024-03-29T18:57:33;12.50;99.90
8402;DHT22;4238;48.404;9.498;2024-03-29T19:00:02;12.70;1.00
8402;DHT22;4238;48.404;9.498;2024-03-29T19:02:28;12.70;1.00
8402;DHT22;4238;48.404;9.498;2024-03-29T19:04:55;12.70;1.00
8402;DHT22;4238;48.404;9.498;2024-03-29T19:07:21;12.80;1.00
8402;DHT22;4238;48.404;9.498;2024-03-29T19:09:48;12.80;1.00
8402;DHT22;4238;48.404;9.498;2024-03-29T19:12:15;13.00;99.30
8402;DHT22;4238;48.404;9.498;2024-03-29T19:14:45;13.10;1.00
8402;DHT22;4238;48.404;9.498;2024-03-29T19:17:11;13.20;1.00
8402;DHT22;4238;48.404;9.498;2024-03-29T19:19:38;13.30;1.00
8402;DHT22;4238;48.404;9.498;2024-03-29T19:22:04;13.30;99.90
8402;DHT22;4238;48.404;9.498;2024-03-29T19:24:30;13.30;99.90
8402;DHT22;4238;48.404;9.498;2024-03-29T19:26:56;13.30;99.90
8402;DHT22;4238;48.404;9.498;2024-03-29T19:29:24;13.30;99.90
8402;DHT22;4238;48.404;9.498;2024-03-29T19:31:50;13.40;99.90
8402;DHT22;4238;48.404;9.498;2024-03-29T19:34:18;13.40;99.90
8402;DHT22;4238;48.404;9.498;2024-03-29T19:36:44;13.40;49.30
8402;DHT22;4238;48.404;9.498;2024-03-29T19:39:13;13.40;2.40
8402;DHT22;4238;48.404;9.498;2024-03-29T19:41:40;13.30;2.60
8402;DHT22;4238;48.404;9.498;2024-03-29T19:44:07;13.30;1.00
8402;DHT22;4238;48.404;9.498;2024-03-29T19:46:34;13.30;1.00
8402;DHT22;4238;48.404;9.498;2024-03-29T19:49:01;13.20;1.00
8402;DHT22;4238;48.404;9.498;2024-03-29T19:51:27;13.20;1.00
8402;DHT22;4238;48.404;9.498;2024-03-29T19:53:54;13.20;1.00
8402;DHT22;4238;48.404;9.498;2024-03-29T19:56:20;13.20;1.00
8402;DHT22;4238;48.404;9.498;2024-03-29T19:58:48;13.20;1.00
8402;DHT22;4238;48.404;9.498;2024-03-29T20:01:14;13.20;1.00
8402;DHT22;4238;48.404;9.498;2024-03-29T20:03:42;13.20;1.00
8402;DHT22;4238;48.404;9.498;2024-03-29T20:06:08;13.40;99.90
8402;DHT22;4238;48.404;9.498;2024-03-29T20:08:35;13.40;99.90
8402;DHT22;4238;48.404;9.498;2024-03-29T20:11:01;13.50;99.90
8402;DHT22;4238;48.404;9.498;2024-03-29T20:13:28;13.50;99.90
8402;DHT22;4238;48.404;9.498;2024-03-29T20:15:54;13.60;99.90
8402;DHT22;4238;48.404;9.498;2024-03-29T20:18:20;13.60;99.90
8402;DHT22;4238;48.404;9.498;2024-03-29T20:20:48;13.70;92.50
8402;DHT22;4238;48.404;9.498;2024-03-29T20:23:16;13.70;45.60
8402;DHT22;4238;48.404;9.498;2024-03-29T20:25:42;13.80;10.30
8402;DHT22;4238;48.404;9.498;2024-03-29T20:28:10;13.80;1.00
8402;DHT22;4238;48.404;9.498;2024-03-29T20:30:36;13.80;1.00
8402;DHT22;4238;48.404;9.498;2024-03-29T20:33:04;13.90;1.00
8402;DHT22;4238;48.404;9.498;2024-03-29T20:35:30;13.80;1.00
8402;DHT22;4238;48.404;9.498;2024-03-29T20:37:58;13.90;1.00
8402;DHT22;4238;48.404;9.498;2024-03-29T20:40:24;13.90;1.00
8402;DHT22;4238;48.404;9.498;2024-03-29T20:42:51;13.90;1.00
8402;DHT22;4238;48.404;9.498;2024-03-29T20:45:17;13.90;1.00
8402;DHT22;4238;48.404;9.498;2024-03-29T20:47:44;14.00;1.00
8402;DHT22;4238;48.404;9.498;2024-03-29T20:50:10;14.00;1.00
8402;DHT22;4238;48.404;9.498;2024-03-29T20:52:37;14.10;1.00
8402;DHT22;4238;48.404;9.498;2024-03-29T20:55:04;14.10;1.00
8402;DHT22;4238;48.404;9.498;2024-03-29T20:57:32;14.10;1.00
8402;DHT22;4238;48.404;9.498;2024-03-29T20:59:59;14.10;1.00
8402;DHT22;4238;48.404;9.498;2024-03-29T21:02:26;14.20;1.00
8402;DHT22;4238;48.404;9.498;2024-03-29T21:05:10;14.20;1.00
8402;DHT22;4238;48.404;9.498;2024-03-29T21:07:55;14.20;1.00
8402;DHT22;4238;48.404;9.498;2024-03-29T21:10:26;14.30;1.00
8402;DHT22;4238;48.404;9.498;2024-03-29T21:12:53;14.30;1.00
8402;DHT22;4238;48.404;9.498;2024-03-29T21:15:19;14.40;1.00
8402;DHT22;4238;48.404;9.498;2024-03-29T21:17:46;14.30;1.00